Time;durP1;ratioP1;P1;durP2;ratioP2;P2;SDS_P1;SDS_P2;PMS_P1;PMS_P2;Temp;Humidity;BMP_temperature;BMP_pressure;BME280_temperature;BME280_humidity;BME280_pressure;Samples;Min_cycle;Max_cycle;Signal;HPM_P1;HPM_P2
2022/10/26 00:03:03;;;;;;;30.40;11.07;;;;;;;8.78;99.11;99615.91;8521844;27;20053;-79
2022/10/26 00:07:04;;;;;;;47.70;13.85;;;;;;;8.72;99.06;99617.06;8476616;27;20151;-79
2022/10/26 00:11:05;;;;;;;41.00;14.02;;;;;;;8.70;98.91;99608.47;8497516;27;20047;-79
2022/10/26 00:15:07;;;;;;;35.97;12.00;;;;;;;8.66;98.87;99612.81;8509353;27;20461;-79
2022/10/26 00:19:08;;;;;;;32.67;9.93;;;;;;;8.62;99.01;99606.38;8456454;27;20104;-79
2022/10/26 00:23:09;;;;;;;31.85;8.73;;;;;;;8.58;98.92;99616.09;8504215;27;20490;-79
2022/10/26 00:27:10;;;;;;;25.58;9.20;;;;;;;8.55;98.90;99616.69;8472758;27;20057;-79
2022/10/26 00:31:13;;;;;;;25.23;9.02;;;;;;;8.50;98.98;99619.44;8514056;27;20111;-78
2022/10/26 00:35:14;;;;;;;19.13;7.60;;;;;;;8.47;98.85;99619.97;8503179;27;20051;-78
2022/10/26 00:39:15;;;;;;;19.40;7.85;;;;;;;8.41;98.66;99621.09;8500286;27;20592;-79
2022/10/26 00:43:34;;;;;;;22.08;8.63;;;;;;;8.36;98.77;99623.81;8514223;27;20054;-78
2022/10/26 00:47:46;;;;;;;19.08;8.40;;;;;;;8.33;98.78;99619.81;8498808;27;20055;-78
2022/10/26 00:51:51;;;;;;;24.75;8.27;;;;;;;8.27;98.75;99625.50;8483599;27;20046;-79
2022/10/26 00:55:52;;;;;;;21.73;7.50;;;;;;;8.23;98.42;99624.44;8465856;27;20055;-79
2022/10/26 00:59:54;;;;;;;23.02;8.18;;;;;;;8.16;98.60;99624.75;8494498;27;20043;-79
2022/10/26 01:03:55;;;;;;;22.52;8.40;;;;;;;8.12;98.38;99629.09;8499244;27;20047;-78
2022/10/26 01:07:57;;;;;;;18.70;8.20;;;;;;;8.13;98.50;99629.91;8491337;27;20059;-78
2022/10/26 01:11:58;;;;;;;22.27;8.15;;;;;;;8.14;98.39;99636.91;8478633;27;20479;-78
2022/10/26 01:16:29;;;;;;;27.60;9.32;;;;;;;8.13;98.27;99640.66;8497038;27;20035;-78
2022/10/26 01:20:51;;;;;;;43.75;9.70;;;;;;;8.12;98.33;99633.66;8482114;27;20382;-78
2022/10/26 01:25:11;;;;;;;19.77;8.80;;;;;;;8.09;98.41;99629.63;8480252;27;20058;-78
2022/10/26 01:29:50;;;;;;;19.75;9.00;;;;;;;8.09;99.12;99623.47;8498869;27;20227;-78
2022/10/26 01:33:59;;;;;;;25.38;9.18;;;;;;;8.14;99.00;99626.13;8319476;28;20057;-78
2022/10/26 01:38:03;;;;;;;22.30;7.65;;;;;;;8.12;99.01;99615.66;8315384;28;20080;-78
2022/10/26 01:42:04;;;;;;;17.25;7.68;;;;;;;8.13;98.90;99624.53;8332586;28;20049;-78
2022/10/26 01:46:06;;;;;;;20.40;8.27;;;;;;;8.10;99.20;99608.94;8327146;28;20057;-78
2022/10/26 01:50:09;;;;;;;16.90;7.72;;;;;;;8.06;99.54;99614.88;8331771;28;20045;-78
2022/10/26 01:54:09;;;;;;;18.35;7.50;;;;;;;8.02;99.36;99603.06;8315783;28;20049;-78
2022/10/26 01:58:34;;;;;;;30.35;9.55;;;;;;;7.97;99.46;99605.81;8332175;28;20057;-78
2022/10/26 02:02:51;;;;;;;36.50;11.57;;;;;;;7.91;99.41;99601.53;8357868;27;20203;-78
2022/10/26 02:07:21;;;;;;;58.85;17.52;;;;;;;7.86;99.33;99598.88;8497298;27;20694;-79
2022/10/26 02:11:41;;;;;;;80.93;18.98;;;;;;;7.85;99.19;99602.66;8511485;27;20464;-78
2022/10/26 02:16:14;;;;;;;74.00;22.88;;;;;;;7.81;99.54;99604.28;8503005;27;20043;-78
2022/10/26 02:20:26;;;;;;;84.88;22.08;;;;;;;7.78;99.30;99602.13;8506403;27;20069;-79
2022/10/26 02:24:27;;;;;;;84.68;23.92;;;;;;;7.74;99.22;99605.66;8504422;27;20039;-78
2022/10/26 02:28:33;;;;;;;76.32;21.25;;;;;;;7.70;98.97;99600.06;8508349;27;20066;-78
2022/10/26 02:32:37;;;;;;;52.13;19.15;;;;;;;7.69;99.10;99603.81;8505344;27;20042;-78
2022/10/26 02:36:42;;;;;;;69.78;18.48;;;;;;;7.68;98.89;99606.78;8509002;27;20491;-78
2022/10/26 02:40:46;;;;;;;47.88;17.30;;;;;;;7.65;98.92;99608.16;8475514;27;20396;-78
2022/10/26 02:44:49;;;;;;;85.22;25.48;;;;;;;7.61;98.87;99601.72;8505921;27;20145;-78
2022/10/26 02:48:51;;;;;;;61.00;21.02;;;;;;;7.59;99.00;99603.88;8492753;27;20035;-78
2022/10/26 02:53:00;;;;;;;73.47;22.02;;;;;;;7.52;99.06;99603.34;8502322;27;20070;-78
2022/10/26 02:57:15;;;;;;;81.90;21.77;;;;;;;7.49;98.92;99603.91;8486885;27;20046;-78
2022/10/26 03:01:15;;;;;;;80.15;22.75;;;;;;;7.44;98.70;99601.25;8454012;27;20051;-78
2022/10/26 03:05:31;;;;;;;57.20;17.65;;;;;;;7.41;98.82;99612.53;8489427;27;20050;-78
2022/10/26 03:09:32;;;;;;;67.10;18.95;;;;;;;7.40;98.75;99616.34;8486032;27;20092;-78
2022/10/26 03:13:33;;;;;;;59.97;16.83;;;;;;;7.36;98.77;99617.94;8512650;27;20039;-78
2022/10/26 03:17:36;;;;;;;49.78;15.27;;;;;;;7.35;98.72;99619.03;8514429;27;20070;-78
2022/10/26 03:21:37;;;;;;;51.28;15.75;;;;;;;7.33;98.72;99626.56;8504088;27;20042;-78
2022/10/26 03:25:38;;;;;;;53.50;13.77;;;;;;;7.31;98.61;99624.13;8504271;27;20051;-78
2022/10/26 03:29:39;;;;;;;45.50;12.98;;;;;;;7.29;98.61;99630.88;8516171;27;20414;-79
2022/10/26 03:33:40;;;;;;;40.95;10.55;;;;;;;7.27;98.51;99628.47;8507944;27;20135;-79
2022/10/26 03:37:41;;;;;;;38.20;10.43;;;;;;;7.28;98.53;99623.91;8506883;27;20081;-79
2022/10/26 03:41:43;;;;;;;60.08;11.52;;;;;;;7.27;98.58;99627.66;8500566;27;20057;-79
2022/10/26 03:45:44;;;;;;;38.60;9.15;;;;;;;7.26;98.62;99639.47;8499842;27;20039;-79
2022/10/26 03:49:44;;;;;;;34.78;9.65;;;;;;;7.20;98.63;99634.13;8503833;27;20178;-79
2022/10/26 03:53:45;;;;;;;29.45;10.32;;;;;;;7.17;98.64;99639.25;8505795;27;20114;-79
2022/10/26 03:57:46;;;;;;;71.35;14.52;;;;;;;7.16;98.44;99638.44;8496776;27;20474;-79
2022/10/26 04:01:47;;;;;;;70.38;15.43;;;;;;;7.16;98.73;99643.81;8497334;27;20043;-79
2022/10/26 04:05:48;;;;;;;150.55;37.72;;;;;;;7.16;98.54;99638.44;8512968;27;20066;-79
2022/10/26 04:09:49;;;;;;;136.68;30.77;;;;;;;7.14;98.48;99635.19;8505856;27;20122;-79
2022/10/26 04:13:50;;;;;;;95.57;24.83;;;;;;;7.15;98.64;99636.81;8509183;27;20141;-79
2022/10/26 04:18:00;;;;;;;88.88;22.38;;;;;;;7.12;99.02;99626.63;8498598;27;20059;-79
2022/10/26 04:22:01;;;;;;;67.28;18.08;;;;;;;7.11;98.82;99625.03;8496814;27;20128;-79
2022/10/26 04:26:04;;;;;;;67.00;20.02;;;;;;;7.11;98.91;99633.06;8476674;27;20039;-79
2022/10/26 04:30:08;;;;;;;64.72;18.20;;;;;;;7.07;98.86;99640.06;8498381;27;20099;-80
2022/10/26 04:34:09;;;;;;;66.43;19.05;;;;;;;7.05;99.35;99642.22;8486853;27;20043;-80
2022/10/26 04:38:10;;;;;;;60.50;17.73;;;;;;;7.06;99.61;99632.28;8496296;27;20046;-79
2022/10/26 04:42:11;;;;;;;44.80;17.10;;;;;;;7.07;99.57;99634.72;8494149;27;20066;-79
2022/10/26 04:46:15;;;;;;;48.97;18.17;;;;;;;7.07;99.68;99629.34;8497426;27;20520;-79
2022/10/26 04:50:16;;;;;;;47.47;18.45;;;;;;;7.05;99.68;99636.84;8509983;27;20051;-79
2022/10/26 04:54:17;;;;;;;35.08;17.88;;;;;;;7.04;99.36;99643.28;8499430;27;20082;-79
2022/10/26 04:58:18;;;;;;;46.28;26.10;;;;;;;6.99;99.30;99637.13;8494997;27;20078;-79
2022/10/26 05:02:19;;;;;;;33.83;17.52;;;;;;;6.99;99.40;99643.31;8498748;27;20043;-79
2022/10/26 05:06:21;;;;;;;29.10;15.10;;;;;;;6.96;99.60;99638.50;8521910;27;20045;-79
2022/10/26 05:10:22;;;;;;;28.95;14.57;;;;;;;6.98;99.49;99639.00;8513488;27;20058;-79
2022/10/26 05:14:23;;;;;;;37.30;19.00;;;;;;;7.01;99.22;99635.78;8503457;27;20052;-79
2022/10/26 05:18:25;;;;;;;45.42;24.80;;;;;;;6.97;99.13;99640.09;8506723;27;20135;-79
2022/10/26 05:22:26;;;;;;;20.05;12.05;;;;;;;6.96;99.53;99641.19;8493996;27;20047;-79
2022/10/26 05:26:27;;;;;;;22.52;10.70;;;;;;;6.96;99.53;99638.50;8470457;27;20047;-79
2022/10/26 05:30:28;;;;;;;15.88;7.55;;;;;;;6.96;99.34;99643.84;8497748;27;20587;-79
2022/10/26 05:34:29;;;;;;;11.45;6.25;;;;;;;6.95;99.39;99644.94;8497482;27;20043;-79
2022/10/26 05:38:30;;;;;;;9.63;6.22;;;;;;;6.95;99.49;99658.34;8472614;27;20484;-78
2022/10/26 05:42:31;;;;;;;9.93;5.72;;;;;;;6.93;99.45;99671.22;8507343;27;20054;-79
2022/10/26 05:46:32;;;;;;;13.13;7.72;;;;;;;6.92;99.41;99680.38;8495760;27;20706;-78
2022/10/26 05:50:33;;;;;;;21.33;10.15;;;;;;;6.98;99.24;99670.44;8506842;27;20274;-79
2022/10/26 05:54:34;;;;;;;17.98;11.00;;;;;;;7.01;99.23;99684.13;8506649;27;20047;-79
2022/10/26 05:58:35;;;;;;;25.17;15.68;;;;;;;7.04;99.59;99688.94;8492783;27;20537;-80
2022/10/26 06:02:43;;;;;;;23.45;13.75;;;;;;;7.06;100.00;99686.00;8503038;27;20073;-79
2022/10/26 06:06:45;;;;;;;29.73;17.43;;;;;;;7.09;100.00;99696.19;8472972;27;20055;-79
2022/10/26 06:10:47;;;;;;;23.88;13.75;;;;;;;7.12;100.00;99701.84;8495652;27;20170;-80
2022/10/26 06:14:48;;;;;;;25.08;13.85;;;;;;;7.15;100.00;99705.84;8493731;27;20460;-80
2022/10/26 06:19:07;;;;;;;28.75;16.00;;;;;;;7.17;100.00;99698.34;8504610;27;20595;-80
2022/10/26 06:23:32;;;;;;;39.13;20.77;;;;;;;7.20;100.00;99703.97;8498725;27;20051;-79
2022/10/26 06:27:40;;;;;;;26.25;15.52;;;;;;;7.19;100.00;99702.34;8506973;27;20410;-79
2022/10/26 06:31:41;;;;;;;31.40;15.97;;;;;;;7.21;100.00;99710.94;8512656;27;20043;-80
2022/10/26 06:36:03;;;;;;;31.75;19.17;;;;;;;7.23;100.00;99708.00;8484098;27;20560;-80
2022/10/26 06:40:05;;;;;;;35.45;17.90;;;;;;;7.27;100.00;99705.56;8504033;27;20051;-80
2022/10/26 06:44:11;;;;;;;27.42;16.83;;;;;;;7.31;100.00;99709.31;8503197;27;20346;-80
2022/10/26 06:48:24;;;;;;;25.83;15.25;;;;;;;7.40;100.00;99702.31;8484794;27;20051;-80
2022/10/26 06:52:31;;;;;;;23.75;15.52;;;;;;;7.48;100.00;99716.00;8443017;27;20046;-80
2022/10/26 06:56:33;;;;;;;21.50;14.43;;;;;;;7.61;100.00;99720.78;8492422;27;20062;-80
2022/10/26 07:00:34;;;;;;;26.67;17.05;;;;;;;7.72;100.00;99716.16;8480309;27;20495;-80
2022/10/26 07:04:34;;;;;;;34.80;19.10;;;;;;;7.88;100.00;99714.22;8498370;27;20074;-80
2022/10/26 07:08:35;;;;;;;31.90;20.58;;;;;;;8.05;100.00;99715.47;8505385;27;20055;-80
2022/10/26 07:12:37;;;;;;;35.67;21.77;;;;;;;8.23;100.00;99715.94;8498742;27;20071;-80
2022/10/26 07:16:38;;;;;;;45.50;23.10;;;;;;;8.42;100.00;99722.28;8497851;27;20088;-80
2022/10/26 07:20:40;;;;;;;45.67;22.88;;;;;;;8.62;100.00;99721.38;8463215;27;20138;-80
2022/10/26 07:24:41;;;;;;;41.75;23.83;;;;;;;8.78;100.00;99723.63;8497991;27;20403;-79
2022/10/26 07:28:42;;;;;;;45.33;25.35;;;;;;;8.98;100.00;99727.25;8499036;27;20051;-80
2022/10/26 07:32:44;;;;;;;39.97;22.70;;;;;;;9.12;100.00;99728.19;8501937;27;20100;-80
2022/10/26 07:36:44;;;;;;;44.17;23.15;;;;;;;9.27;100.00;99736.13;8500802;27;20122;-79
2022/10/26 07:40:47;;;;;;;40.90;22.25;;;;;;;9.43;100.00;99729.50;8497230;27;20054;-80
2022/10/26 07:44:48;;;;;;;46.40;22.08;;;;;;;9.54;100.00;99731.00;8497691;27;20130;-80
2022/10/26 07:48:49;;;;;;;46.72;24.05;;;;;;;9.65;100.00;99727.13;8471045;27;20133;-80
2022/10/26 07:52:50;;;;;;;41.30;22.10;;;;;;;9.79;100.00;99731.78;8450186;27;20074;-80
2022/10/26 07:56:52;;;;;;;48.08;23.80;;;;;;;9.92;100.00;99731.09;8497235;27;20426;-79
2022/10/26 08:00:53;;;;;;;38.88;22.42;;;;;;;10.06;100.00;99726.59;8504056;27;20039;-79
2022/10/26 08:04:54;;;;;;;52.08;27.27;;;;;;;10.15;100.00;99731.06;8460873;27;20039;-81
2022/10/26 08:08:55;;;;;;;54.60;27.27;;;;;;;10.29;100.00;99720.38;8503926;27;20146;-81
2022/10/26 08:12:56;;;;;;;42.83;21.85;;;;;;;10.37;100.00;99722.41;8499673;27;20039;-80
2022/10/26 08:16:57;;;;;;;38.72;20.40;;;;;;;10.49;100.00;99725.50;8479181;27;20075;-80
2022/10/26 08:21:03;;;;;;;43.40;23.25;;;;;;;10.62;100.00;99717.75;8512851;27;20055;-80
2022/10/26 08:25:04;;;;;;;28.70;17.48;;;;;;;10.75;100.00;99722.38;8493870;27;20050;-78
2022/10/26 08:29:06;;;;;;;33.38;17.33;;;;;;;10.87;100.00;99726.25;8517883;27;20186;-79
2022/10/26 08:33:07;;;;;;;30.88;16.77;;;;;;;11.00;100.00;99727.38;8512738;27;20050;-80
2022/10/26 08:37:08;;;;;;;25.27;14.65;;;;;;;11.16;100.00;99727.91;8488162;27;20726;-79
2022/10/26 08:41:09;;;;;;;16.67;9.50;;;;;;;11.41;100.00;99720.16;8473677;27;20059;-80
2022/10/26 08:45:31;;;;;;;16.30;8.82;;;;;;;11.60;100.00;99724.66;8500777;27;20663;-80
2022/10/26 08:49:52;;;;;;;15.02;9.15;;;;;;;11.85;100.00;99735.00;8486821;27;20095;-79
2022/10/26 08:53:59;;;;;;;20.48;9.82;;;;;;;12.02;99.93;99726.28;8481645;27;20047;-80
2022/10/26 08:58:01;;;;;;;17.40;9.13;;;;;;;12.15;99.26;99723.56;8491515;27;20558;-80
2022/10/26 09:02:02;;;;;;;20.05;10.57;;;;;;;12.28;99.20;99733.56;8484486;27;20439;-80
2022/10/26 09:06:06;;;;;;;18.25;9.98;;;;;;;12.44;98.21;99727.81;8474156;27;20050;-81
2022/10/26 09:10:07;;;;;;;24.80;13.55;;;;;;;12.57;98.06;99735.09;8504546;27;20047;-80
2022/10/26 09:14:31;;;;;;;27.25;12.65;;;;;;;12.67;97.97;99740.28;8517253;27;20043;-80
2022/10/26 09:18:52;;;;;;;26.10;12.60;;;;;;;12.77;97.50;99740.03;8489632;27;20059;-81
2022/10/26 09:23:05;;;;;;;19.73;9.48;;;;;;;12.92;96.04;99752.41;8507986;27;20090;-82
2022/10/26 09:27:31;;;;;;;22.75;9.45;;;;;;;13.06;95.42;99753.94;8501791;27;20047;-80
2022/10/26 09:31:46;;;;;;;15.27;8.98;;;;;;;13.19;94.98;99751.50;8366187;28;20045;-80
2022/10/26 09:35:50;;;;;;;14.55;7.68;;;;;;;13.30;94.51;99763.72;8359339;28;20048;-79
2022/10/26 09:40:16;;;;;;;15.13;7.00;;;;;;;13.43;94.20;99763.59;8365403;28;20106;-80
2022/10/26 09:44:59;;;;;;;16.88;7.13;;;;;;;13.62;93.65;99760.69;8370063;28;20053;-80
2022/10/26 09:49:10;;;;;;;14.43;7.45;;;;;;;13.83;92.04;99761.72;8301931;28;20046;-80
2022/10/26 09:53:11;;;;;;;18.77;7.40;;;;;;;13.96;91.27;99760.78;8314294;28;20045;-80
2022/10/26 09:57:17;;;;;;;17.10;6.28;;;;;;;14.13;90.67;99759.25;8280958;28;20052;-81
2022/10/26 10:01:31;;;;;;;10.77;6.10;;;;;;;14.25;89.08;99756.72;8309516;28;20506;-81
2022/10/26 10:05:34;;;;;;;14.18;6.80;;;;;;;14.38;88.68;99769.41;8313668;28;20053;-80
2022/10/26 10:09:35;;;;;;;11.98;4.20;;;;;;;14.46;85.87;99768.63;8348856;28;20137;-80
2022/10/26 10:13:41;;;;;;;14.68;4.75;;;;;;;14.50;86.08;99764.13;8357601;28;20071;-82
2022/10/26 10:17:47;;;;;;;12.55;5.22;;;;;;;14.61;85.04;99768.16;8369687;27;20046;-79
2022/10/26 10:21:49;;;;;;;14.60;6.07;;;;;;;14.70;84.79;99768.94;8511941;27;20438;-82
2022/10/26 10:25:58;;;;;;;13.00;6.35;;;;;;;14.80;84.77;99757.75;8513095;27;20053;-80
2022/10/26 10:30:14;;;;;;;;;;;;;;;14.92;84.38;99759.00;8472046;27;20070;-80
2022/10/26 10:34:21;;;;;;;12.40;7.55;;;;;;;14.96;84.34;99754.56;8467992;27;20022;-82
2022/10/26 10:38:22;;;;;;;15.77;6.47;;;;;;;15.06;84.49;99765.09;8482491;27;20411;-80
2022/10/26 10:42:26;;;;;;;13.00;7.03;;;;;;;15.17;84.39;99766.38;8507169;27;20049;-82
2022/10/26 10:46:27;;;;;;;13.50;6.43;;;;;;;15.25;83.87;99762.81;8515561;27;20043;-81
2022/10/26 10:50:29;;;;;;;10.50;4.93;;;;;;;15.37;83.17;99759.44;8515122;27;20566;-81
2022/10/26 10:54:33;;;;;;;15.35;5.57;;;;;;;15.47;82.88;99759.09;8495098;27;20135;-80
2022/10/26 10:58:41;;;;;;;13.02;5.78;;;;;;;15.58;81.82;99761.16;8501336;27;20100;-81
2022/10/26 11:03:01;;;;;;;10.93;5.63;;;;;;;15.71;81.87;99766.69;8513058;27;20050;-80
2022/10/26 11:07:04;;;;;;;12.00;5.70;;;;;;;15.77;81.15;99757.22;8513394;27;20070;-79
2022/10/26 11:11:12;;;;;;;17.05;5.93;;;;;;;15.80;80.40;99764.75;8494946;27;20164;-80
2022/10/26 11:15:20;;;;;;;11.38;6.20;;;;;;;15.87;79.84;99762.31;8503754;27;20055;-79
2022/10/26 11:19:39;;;;;;;16.13;7.20;;;;;;;15.93;79.49;99766.44;8460883;27;20055;-80
2022/10/26 11:23:46;;;;;;;9.95;4.38;;;;;;;16.04;78.62;99767.69;8507994;27;20139;-81
2022/10/26 11:28:22;;;;;;;13.32;4.63;;;;;;;16.08;77.24;99752.28;8484368;27;20099;-79
2022/10/26 11:32:42;;;;;;;12.95;4.32;;;;;;;16.13;76.22;99771.16;8484573;27;20134;-80
2022/10/26 11:36:46;;;;;;;9.00;4.10;;;;;;;16.18;76.58;99762.78;8506824;27;20038;-80
2022/10/26 11:40:55;;;;;;;13.70;4.30;;;;;;;16.28;75.55;99767.09;8488821;27;20487;-81
2022/10/26 11:45:16;;;;;;;11.00;3.85;;;;;;;16.29;74.99;99753.09;8504616;27;20110;-80
2022/10/26 11:49:50;;;;;;;8.85;4.00;;;;;;;16.37;74.99;99749.53;8492936;27;20180;-79
2022/10/26 11:53:51;;;;;;;13.10;3.83;;;;;;;16.42;73.83;99752.06;8438942;28;20048;-80
2022/10/26 11:57:53;;;;;;;13.65;3.60;;;;;;;16.43;74.15;99753.66;8444882;28;20842;-81
2022/10/26 12:01:57;;;;;;;11.05;2.60;;;;;;;16.47;73.47;99749.13;8424716;28;20480;-80
2022/10/26 12:05:59;;;;;;;8.05;2.45;;;;;;;16.47;72.49;99754.59;8423188;28;20059;-81
2022/10/26 12:10:00;;;;;;;8.27;2.28;;;;;;;16.48;72.12;99760.84;8440174;28;20133;-80
2022/10/26 12:14:14;;;;;;;9.75;2.42;;;;;;;16.52;72.01;99766.41;8445310;28;20516;-78
2022/10/26 12:18:31;;;;;;;9.65;2.60;;;;;;;16.53;72.16;99762.56;8449813;28;20050;-78
2022/10/26 12:22:36;;;;;;;4.97;1.90;;;;;;;16.55;72.49;99760.31;8463702;27;20055;-79
2022/10/26 12:26:37;;;;;;;10.15;2.17;;;;;;;16.53;71.49;99765.28;8506443;27;20038;-80
2022/10/26 12:30:39;;;;;;;8.50;2.70;;;;;;;16.45;70.01;99767.75;8507421;27;20043;-79
2022/10/26 12:34:39;;;;;;;7.65;2.40;;;;;;;16.41;71.01;99772.28;8516529;27;20043;-80
2022/10/26 12:38:40;;;;;;;11.02;2.58;;;;;;;16.43;72.16;99764.56;8513143;27;20043;-80
2022/10/26 12:42:44;;;;;;;4.80;2.00;;;;;;;16.47;71.94;99765.50;8519677;27;20046;-78
2022/10/26 12:46:45;;;;;;;6.90;2.10;;;;;;;16.50;71.32;99769.47;8467456;27;20042;-79
2022/10/26 12:50:46;;;;;;;6.43;2.70;;;;;;;16.51;72.18;99752.00;8447061;27;20484;-80
2022/10/26 12:55:04;;;;;;;9.32;2.20;;;;;;;17.17;70.52;99755.63;8521420;27;20137;-79
2022/10/26 12:59:12;;;;;;;11.55;2.47;;;;;;;17.95;67.10;99763.75;8510634;27;20042;-79
2022/10/26 13:03:45;;;;;;;5.13;1.83;;;;;;;18.50;65.96;99748.66;8524580;27;21193;-80
2022/10/26 13:07:46;;;;;;;7.55;2.20;;;;;;;19.27;65.49;99746.56;8367945;28;20057;-79
2022/10/26 13:11:57;;;;;;;5.80;2.15;;;;;;;19.22;64.00;99738.59;8370156;28;20048;-79
2022/10/26 13:15:59;;;;;;;6.53;2.10;;;;;;;19.29;63.82;99745.06;8356940;28;20068;-78
2022/10/26 13:20:03;;;;;;;5.97;2.17;;;;;;;19.14;63.98;99740.34;8388344;28;20140;-79
2022/10/26 13:24:10;;;;;;;9.85;2.30;;;;;;;18.62;63.95;99748.63;8393611;28;20101;-79
2022/10/26 13:28:37;;;;;;;7.55;2.70;;;;;;;18.22;64.99;99745.06;8373926;28;20053;-80
2022/10/26 13:32:41;;;;;;;6.43;2.00;;;;;;;17.90;65.66;99747.56;8386136;28;20045;-79
2022/10/26 13:36:51;;;;;;;10.23;2.47;;;;;;;17.53;65.64;99740.47;8386738;28;20070;-81
2022/10/26 13:41:01;;;;;;;6.45;2.38;;;;;;;17.35;65.67;99744.50;8396028;28;20056;-79
2022/10/26 13:45:06;;;;;;;11.70;3.25;;;;;;;17.20;66.35;99749.50;8464763;27;20045;-81
2022/10/26 13:49:19;;;;;;;5.38;2.53;;;;;;;17.09;66.85;99742.84;8496973;27;20130;-80
2022/10/26 13:53:44;;;;;;;7.40;3.03;;;;;;;16.96;67.22;99754.88;8512476;27;20039;-80
2022/10/26 13:58:04;;;;;;;11.45;3.00;;;;;;;16.87;67.63;99751.41;8461555;28;20513;-78
2022/10/26 14:02:23;;;;;;;10.27;2.08;;;;;;;16.77;67.12;99757.25;8500369;27;20126;-78
2022/10/26 14:06:26;;;;;;;4.95;2.03;;;;;;;16.66;66.60;99762.31;8508278;27;20039;-78
2022/10/26 14:10:37;;;;;;;7.13;2.65;;;;;;;16.60;67.26;99762.88;8500869;27;20072;-78
2022/10/26 14:14:39;;;;;;;6.75;2.20;;;;;;;16.53;67.10;99759.84;8511973;27;20063;-79
2022/10/26 14:18:40;;;;;;;8.00;2.20;;;;;;;16.43;67.43;99748.22;8478639;27;20044;-80
2022/10/26 14:22:42;;;;;;;10.50;2.63;;;;;;;16.33;68.44;99748.59;8508111;27;20090;-79
2022/10/26 14:26:44;;;;;;;7.75;2.35;;;;;;;16.21;69.49;99745.78;8510630;27;20039;-79
2022/10/26 14:30:45;;;;;;;7.15;1.98;;;;;;;16.13;69.79;99749.34;8484565;27;20385;-79
2022/10/26 14:34:46;;;;;;;5.32;1.80;;;;;;;16.06;70.39;99749.09;8510814;27;20047;-79
2022/10/26 14:38:49;;;;;;;9.73;2.10;;;;;;;15.97;71.01;99746.41;8460310;28;20066;-79
2022/10/26 14:42:53;;;;;;;9.98;2.22;;;;;;;15.77;72.14;99751.78;8448060;27;20527;-79
2022/10/26 14:46:57;;;;;;;6.22;2.13;;;;;;;15.54;73.68;99748.53;8516610;27;20058;-79
2022/10/26 14:51:14;;;;;;;8.85;2.20;;;;;;;15.30;74.62;99754.47;8516270;27;20058;-79
2022/10/26 14:55:15;;;;;;;7.85;2.05;;;;;;;15.11;75.68;99751.34;8507503;27;20051;-79
2022/10/26 14:59:23;;;;;;;5.43;1.90;;;;;;;14.93;76.75;99745.09;8454219;27;20047;-79
2022/10/26 15:03:24;;;;;;;9.07;2.72;;;;;;;14.78;77.25;99743.69;8503201;27;20400;-80
2022/10/26 15:07:35;;;;;;;9.73;2.05;;;;;;;14.63;78.04;99763.19;8519126;27;20662;-79
2022/10/26 15:11:40;;;;;;;8.10;2.40;;;;;;;14.43;79.11;99766.53;8494163;27;20066;-80
2022/10/26 15:15:42;;;;;;;7.65;2.20;;;;;;;14.22;80.09;99768.25;8488329;27;20051;-80
2022/10/26 15:19:43;;;;;;;10.57;2.72;;;;;;;14.09;80.55;99774.56;8449666;27;20456;-79
2022/10/26 15:23:45;;;;;;;7.63;3.63;;;;;;;13.92;80.85;99770.69;8503094;27;20059;-79
2022/10/26 15:27:46;;;;;;;24.40;10.98;;;;;;;13.72;81.79;99776.69;8514911;27;20107;-80
2022/10/26 15:31:59;;;;;;;22.73;10.10;;;;;;;13.53;82.87;99778.84;8485213;27;20130;-80
2022/10/26 15:36:15;;;;;;;12.63;5.10;;;;;;;13.36;83.26;99778.75;8503343;27;20052;-80
2022/10/26 15:40:16;;;;;;;11.65;3.60;;;;;;;13.21;83.52;99771.00;8511181;27;20114;-80
2022/10/26 15:44:19;;;;;;;19.40;3.60;;;;;;;13.02;84.33;99769.25;8514901;27;20047;-79
2022/10/26 15:48:30;;;;;;;15.77;5.30;;;;;;;12.85;85.15;99766.38;8488381;27;20118;-80
2022/10/26 15:52:31;;;;;;;7.30;2.60;;;;;;;12.70;85.64;99774.88;8468798;27;20047;-80
2022/10/26 15:56:32;;;;;;;8.25;2.63;;;;;;;12.57;85.63;99773.03;8486543;27;20043;-80
2022/10/26 16:00:33;;;;;;;16.95;2.50;;;;;;;12.41;85.71;99775.28;8469668;27;20054;-78
2022/10/26 16:04:34;;;;;;;8.60;3.10;;;;;;;12.27;86.08;99775.28;8518560;27;20047;-80
2022/10/26 16:08:37;;;;;;;9.60;4.28;;;;;;;12.12;86.77;99772.91;8507348;27;20479;-80
2022/10/26 16:12:39;;;;;;;14.73;4.55;;;;;;;11.99;86.89;99795.38;8379914;27;20051;-80
2022/10/26 16:16:40;;;;;;;69.78;20.90;;;;;;;11.84;86.94;99788.34;8502337;27;20445;-80
2022/10/26 16:20:44;;;;;;;58.35;21.38;;;;;;;11.75;87.14;99794.75;8505534;27;20043;-81
2022/10/26 16:24:45;;;;;;;71.32;31.10;;;;;;;11.65;87.29;99795.72;8485283;27;20061;-80
2022/10/26 16:28:47;;;;;;;60.38;27.88;;;;;;;11.57;87.40;99799.13;8513067;27;20070;-80
2022/10/26 16:32:48;;;;;;;39.47;17.92;;;;;;;11.51;87.35;99807.63;8507148;27;20501;-80
2022/10/26 16:36:49;;;;;;;41.47;18.48;;;;;;;11.42;87.47;99802.88;8501845;27;20515;-80
2022/10/26 16:41:03;;;;;;;24.38;10.55;;;;;;;11.36;87.74;99814.91;8509540;27;20047;-80
2022/10/26 16:45:05;;;;;;;15.23;6.38;;;;;;;11.27;87.86;99816.66;8519501;27;20042;-80
2022/10/26 16:49:06;;;;;;;22.60;7.13;;;;;;;11.18;87.88;99812.22;8487745;27;20506;-80
2022/10/26 16:53:07;;;;;;;34.42;10.25;;;;;;;11.11;88.21;99828.81;8507465;27;20050;-80
2022/10/26 16:57:09;;;;;;;51.55;18.48;;;;;;;11.03;88.45;99837.63;8499576;27;20095;-79
2022/10/26 17:01:11;;;;;;;44.10;13.23;;;;;;;10.94;88.75;99844.78;8507887;27;20065;-79
2022/10/26 17:05:12;;;;;;;23.80;7.97;;;;;;;10.83;89.03;99840.63;8511941;27;20176;-78
2022/10/26 17:09:14;;;;;;;29.38;11.32;;;;;;;10.75;89.13;99846.66;8468988;27;20514;-79
2022/10/26 17:13:16;;;;;;;31.52;11.07;;;;;;;10.68;89.44;99843.53;8486160;27;20050;-80
2022/10/26 17:17:17;;;;;;;13.07;5.72;;;;;;;10.59;89.09;99854.97;8449050;27;20400;-80
2022/10/26 17:21:26;;;;;;;11.55;6.13;;;;;;;10.52;89.63;99854.53;8522790;27;20045;-80
2022/10/26 17:25:27;;;;;;;10.85;6.03;;;;;;;10.46;89.44;99855.72;8517058;27;20406;-80
2022/10/26 17:29:28;;;;;;;29.17;8.40;;;;;;;10.43;89.41;99856.25;8518137;27;20054;-80
2022/10/26 17:33:34;;;;;;;21.92;10.55;;;;;;;10.37;89.62;99862.81;8501139;27;20047;-80
2022/10/26 17:37:36;;;;;;;40.95;15.48;;;;;;;10.31;89.98;99869.38;8479107;27;20042;-80
2022/10/26 17:41:37;;;;;;;44.47;24.35;;;;;;;10.31;89.81;99842.38;8502557;27;20051;-81
2022/10/26 17:45:38;;;;;;;56.42;29.33;;;;;;;10.29;90.17;99860.78;8461184;27;20058;-80
2022/10/26 17:49:40;;;;;;;37.40;18.73;;;;;;;10.32;90.77;99870.97;8505099;27;20047;-80
2022/10/26 17:53:42;;;;;;;34.63;18.05;;;;;;;10.30;91.43;99870.47;8452923;28;20047;-80
2022/10/26 17:57:46;;;;;;;35.90;17.58;;;;;;;10.34;91.49;99879.59;8455913;28;20048;-80
2022/10/26 18:01:48;;;;;;;48.13;21.95;;;;;;;10.38;91.42;99875.22;8455503;28;20052;-81
2022/10/26 18:05:51;;;;;;;64.20;32.45;;;;;;;10.37;91.78;99886.31;8449162;28;20080;-81
2022/10/26 18:09:52;;;;;;;63.58;32.20;;;;;;;10.34;91.84;99890.41;8449472;28;20101;-80
2022/10/26 18:13:54;;;;;;;50.67;28.10;;;;;;;10.33;92.13;99883.38;8435674;28;20047;-80
2022/10/26 18:17:56;;;;;;;44.08;23.25;;;;;;;10.32;91.93;99887.19;8438406;28;20059;-80
2022/10/26 18:21:59;;;;;;;45.55;25.05;;;;;;;10.25;92.50;99886.75;8457029;28;20476;-80
2022/10/26 18:26:07;;;;;;;45.20;22.63;;;;;;;10.19;92.92;99895.97;8453187;28;20059;-80
2022/10/26 18:30:13;;;;;;;47.17;26.45;;;;;;;10.17;93.14;99900.84;8436001;27;20051;-80
2022/10/26 18:34:17;;;;;;;51.45;27.90;;;;;;;10.20;92.97;99905.69;8418791;27;20519;-80
2022/10/26 18:38:21;;;;;;;50.45;28.83;;;;;;;10.20;93.13;99905.69;8481934;27;20381;-81
2022/10/26 18:42:24;;;;;;;61.88;31.48;;;;;;;10.17;93.58;99914.34;8372397;28;20433;-81
2022/10/26 18:46:30;;;;;;;97.47;44.15;;;;;;;10.14;93.65;99909.50;8380925;28;20048;-81
2022/10/26 18:50:34;;;;;;;76.57;37.80;;;;;;;10.13;93.41;99910.59;8394909;28;20052;-81
2022/10/26 18:54:41;;;;;;;64.43;34.05;;;;;;;10.14;93.44;99906.81;8386026;28;20520;-80
2022/10/26 18:58:47;;;;;;;46.05;26.45;;;;;;;10.12;93.28;99903.56;8370113;28;20051;-81
2022/10/26 19:02:52;;;;;;;61.22;34.35;;;;;;;10.08;92.96;99913.34;8384796;28;20075;-80